createdAt,value
2018-02-17T00:15:04.261Z,48.4
2018-02-17T00:31:51.126Z,48.4
2018-02-17T00:48:38.084Z,48.4
2018-02-17T01:05:25.286Z,48.0
2018-02-17T01:22:12.016Z,48.0
2018-02-17T01:38:59.392Z,47.2
2018-02-17T01:55:45.791Z,47.2
2018-02-17T02:12:32.260Z,47.2
2018-02-17T02:29:19.070Z,46.8
2018-02-17T02:46:05.664Z,46.8
2018-02-17T03:02:52.194Z,46.8
2018-02-17T03:19:38.666Z,46.8
2018-02-17T03:36:25.330Z,46.4
2018-02-17T03:53:11.561Z,46.4
2018-02-17T04:09:58.430Z,46.4
2018-02-17T04:26:44.703Z,46.4
2018-02-17T04:43:31.265Z,46.0
2018-02-17T05:00:17.682Z,46.0
2018-02-17T05:17:03.739Z,46.0
2018-02-17T05:33:50.117Z,45.6
2018-02-17T05:50:36.063Z,45.6
2018-02-17T06:07:22.469Z,45.2
2018-02-17T06:24:09.130Z,45.2
2018-02-17T06:40:55.190Z,45.2
2018-02-17T06:57:41.513Z,45.2
2018-02-17T07:14:27.996Z,44.8
2018-02-17T07:31:14.733Z,44.4
2018-02-17T07:48:01.348Z,44.4
2018-02-17T08:04:48.213Z,44.4
2018-02-17T08:21:34.773Z,44.4
2018-02-17T08:38:21.721Z,44.4
2018-02-17T08:55:07.959Z,44.0
2018-02-17T09:11:54.455Z,42.8
2018-02-17T09:28:40.912Z,42.8
2018-02-17T09:45:27.790Z,42.8
2018-02-17T10:02:14.848Z,42.8
2018-02-17T10:19:02.010Z,42.8
2018-02-17T10:35:48.841Z,42.8
2018-02-17T10:52:35.972Z,43.6
2018-02-17T11:09:23.275Z,43.6
2018-02-17T11:26:10.506Z,43.6
2018-02-17T11:42:57.783Z,43.6
2018-02-17T11:59:45.286Z,43.6
2018-02-17T12:16:33.444Z,43.6
2018-02-17T12:33:20.226Z,44.0
2018-02-17T12:50:08.002Z,44.0
2018-02-17T13:06:55.816Z,44.4
2018-02-17T13:23:43.613Z,44.4
2018-02-17T13:40:31.418Z,44.8
2018-02-17T13:57:19.363Z,44.8
2018-02-17T14:14:07.298Z,44.8
2018-02-17T14:30:56.409Z,44.8
2018-02-17T14:47:42.990Z,44.8
2018-02-17T15:04:30.797Z,45.2
2018-02-17T15:21:18.795Z,45.2
2018-02-17T15:38:06.711Z,45.2
2018-02-17T15:54:54.669Z,45.2
2018-02-17T16:11:42.726Z,45.2
2018-02-17T16:28:31.155Z,45.6
2018-02-17T16:45:18.544Z,45.6
2018-02-17T17:02:06.519Z,45.6
2018-02-17T17:18:54.393Z,45.6
2018-02-17T17:35:42.306Z,46.0
2018-02-17T17:52:30.356Z,46.8
2018-02-17T18:09:18.241Z,46.8
2018-02-17T18:26:06.012Z,46.4
2018-02-17T18:42:53.634Z,47.2
2018-02-17T18:59:40.685Z,47.2
2018-02-17T19:16:27.240Z,47.2
2018-02-17T19:33:14.122Z,47.2
2018-02-17T19:50:00.874Z,47.6
2018-02-17T20:06:47.595Z,47.6
2018-02-17T20:23:34.321Z,47.6
2018-02-17T20:40:21.874Z,47.6
2018-02-17T20:57:07.870Z,47.6
2018-02-17T21:13:54.503Z,47.2
2018-02-17T21:30:41.024Z,47.2
2018-02-17T21:47:27.917Z,47.2
2018-02-17T22:04:14.285Z,47.2
2018-02-17T22:21:00.836Z,46.8
2018-02-17T22:37:48.251Z,46.8
2018-02-17T22:54:34.244Z,46.8
2018-02-17T23:11:20.948Z,46.8
2018-02-17T23:28:07.512Z,46.8
2018-02-17T23:44:54.217Z,46.8
